Terminal Aerodrome Forecast
Issued by NWS Detroit/Pontiac, MI

Home | Current Version | Previous Version | Text Only | Print | Product List | Glossary On
Versions: 1 2 3 4 5 6 7 8 9 10 11 12 13 14 15 16 17 18 19
618
FTUS43 KDTX 182320
TAFFNT
TAF
KFNT 182320Z 1900/1924 36012G20KT 2SM -SN BR BKN008 OVC016
     FM190200 32018G28KT P6SM BKN020 OVC030
     FM191000 30014G22KT P6SM SCT028 BKN040
     FM191700 29015G24KT P6SM BKN035 BKN060=

USA.gov is the U.S. government's official web portal to all federal, state and local government web resources and services.